• Join FlightAware (Why Join?)
  • Login
  • US Flag 
08:39PM EST


 

Airport Tracker/Info


-or-


 

Live Flight TrackerFlight Track Log ✈ EJA922 ✈ 01-Oct-2013 ✈ KGRR - KAPC

Flight Track Log - Related Links

Times and Time Zones

All times are in EDT time to prevent confusion due to time zone crossing. See the EJA922 flight status page for this flight to view local times or setup timezone preferences in your user account.

Time Position Orientation Groundspeed Altitude Reporting Facility
EDT Latitude Longitude Course Direction KTS MPH feet Rate Location/Type
04:36PM 42.8697 -85.5722 253° West 208 239 2,700  Level Chicago Center
04:37PM 42.8517 -85.6517 253° West 216 249 6,500 3,480 Climbing Chicago Center
04:38PM 42.8464 -85.7483 266° West 251 289 9,900 2,940 Climbing Chicago Center
04:39PM 42.8378 -85.8592 264° West 285 328 12,600 2,460 Climbing Chicago Center
04:40PM 42.8236 -86.0186 263° West 348 400 15,000 2,160 Climbing Chicago Center
04:41PM 42.8111 -86.1578 263° West 364 419 17,200 1,920 Climbing Chicago Center
04:42PM 42.8003 -86.2908 264° West 356 410 19,000 1,560 Climbing Chicago Center
04:43PM 42.7867 -86.4250 262° West 355 409 20,500 1,440 Climbing Chicago Center
04:44PM 42.7744 -86.5594 263° West 357 411 22,000 1,440 Climbing Chicago Center
04:45PM 42.7622 -86.6942 263° West 359 413 23,500 1,440 Climbing Chicago Center
04:46PM 42.7492 -86.8297 263° West 362 417 25,000 1,560 Climbing Chicago Center
04:47PM 42.7331 -86.9953 263° West 367 422 26,800 1,500 Climbing Chicago Center
04:49PM 42.7189 -87.1328 262° West 368 423 28,100 1,200 Climbing Chicago Center
04:50PM 42.7050 -87.2725 262° West 371 427 29,400 1,200 Climbing Chicago Center
04:51PM 42.6903 -87.4161 262° West 383 441 30,600 1,020 Climbing Chicago Center
04:52PM 42.6753 -87.5608 262° West 388 447 31,600 960 Climbing Chicago Center
04:53PM 42.6586 -87.7111 261° West 399 459 32,600 960 Climbing Chicago Center
04:54PM 42.6419 -87.8822 263° West 404 465 33,600 960 Climbing Chicago Center
04:55PM 42.6250 -88.0350 261° West 412 474 34,600 960 Climbing Chicago Center
04:56PM 42.6250 -88.1897 270° West 426 490 35,600 960 Climbing Chicago Center
04:57PM 42.6597 -88.3728 285° West 428 493 36,700 960 Climbing Chicago Center
04:58PM 42.6664 -88.5331 273° West 427 491 37,700 960 Climbing Chicago Center
04:59PM 42.6697 -88.6925 272° West 427 491 38,700 960 Climbing Chicago Center
05:00PM 42.6492 -88.8631 261° West 425 489 39,800 600 Climbing Chicago Center
05:01PM 42.6275 -89.0225 260° West 429 494 40,000 60 Climbing Chicago Center
05:02PM 42.6069 -89.1872 260° West 443 510 40,000  Level Chicago Center
05:03PM 42.5858 -89.3578 261° West 458 527 40,000  Level Chicago Center
05:04PM 42.5583 -89.5633 260° West 467 537 40,000  Level Chicago Center
05:05PM 42.5361 -89.7358 260° West 469 540 40,000  Level Chicago Center
05:06PM 42.5133 -89.9067 260° West 467 537 40,000  Level Chicago Center
05:07PM 42.4911 -90.0794 260° West 470 541 40,000  Level Chicago Center
05:08PM 42.4661 -90.2519 259° West 472 543 40,000  Level Chicago Center
05:09PM 42.4389 -90.4575 260° West 469 540 40,000  Level Chicago Center
05:10PM 42.4150 -90.6289 259° West 468 539 40,000  Level Chicago Center
05:11PM 42.3906 -90.8025 259° West 471 542 40,000  Level Chicago Center
05:12PM 42.3647 -90.9750 259° West 474 545 40,000  Level Chicago Center
05:13PM 42.3394 -91.1511 259° West 477 549 40,000  Level Chicago Center
05:14PM 42.3086 -91.3603 259° West 475 547 40,000  Level Chicago Center
05:15PM 42.2833 -91.5322 259° West 470 541 40,000  Level Chicago Center
05:16PM 42.2567 -91.7053 258° West 470 541 40,000  Level Chicago Center
05:18PM 42.2311 -91.8792 259° West 473 544 40,000  Level Chicago Center
05:19PM 42.2047 -92.0528 258° West 474 545 40,000  Level Chicago Center
05:20PM 42.1775 -92.2264 258° West 474 545 40,000  Level Chicago Center
05:21PM 42.1458 -92.4342 258° West 475 547 40,000  Level Chicago Center
05:22PM 42.1317 -92.6094 264° West 474 545 40,000  Level Chicago Center
05:23PM 42.1253 -92.7875 267° West 477 549 40,000  Level Chicago Center
05:23PM 42.1189 -92.8950 265° West 478 550 40,000  Level Minneapolis Center
05:24PM 42.1108 -93.0736 267° West 482 555 40,000  Level Minneapolis Center
05:25PM 42.1019 -93.2472 266° West 473 544 40,000  Level Minneapolis Center
05:26PM 42.0919 -93.4258 266° West 479 551 40,000  Level Minneapolis Center
05:27PM 42.0678 -93.6372 261° West 481 554 40,000  Level Minneapolis Center
05:28PM 42.0339 -93.8106 255° West 484 557 40,000  Level Minneapolis Center
05:29PM 42.0028 -93.9800 256° West 477 549 40,000  Level Minneapolis Center
05:30PM 41.9697 -94.1547 256° West 478 550 40,000  Level Minneapolis Center
05:31PM 41.9358 -94.3311 256° West 485 558 40,000  Level Minneapolis Center
05:33PM 41.9036 -94.5072 256° West 487 560 40,000  Level Minneapolis Center
05:34PM 41.8622 -94.7164 255° West 486 559 40,000  Level Minneapolis Center
05:35PM 41.8272 -94.8906 255° West 486 559 40,000  Level Minneapolis Center
05:36PM 41.7925 -95.0642 255° West 484 557 40,000  Level Minneapolis Center
05:37PM 41.7578 -95.2392 255° West 486 559 40,000  Level Minneapolis Center
05:38PM 41.7225 -95.4133 255° West 487 560 40,000  Level Minneapolis Center
05:39PM 41.6867 -95.5861 255° West 486 559 40,000  Level Minneapolis Center
05:40PM 41.6494 -95.7703 255° West 490 564 40,000  Level Minneapolis Center
05:41PM 41.6053 -95.9800 254° West 490 564 40,000  Level Minneapolis Center
05:42PM 41.5700 -96.1544 255° West 488 562 40,000  Level Minneapolis Center
05:43PM 41.5331 -96.3292 254° West 489 563 40,000  Level Minneapolis Center
05:44PM 41.5003 -96.4850 254° West 488 562 40,000  Level Minneapolis Center
05:45PM 41.4558 -96.6933 254° West 489 563 40,000  Level Minneapolis Center
05:46PM 41.4172 -96.8694 254° West 495 570 40,000  Level Minneapolis Center
05:47PM 41.3786 -97.0422 253° West 491 565 40,000  Level Minneapolis Center
05:48PM 41.3406 -97.2161 254° West 490 564 40,000  Level Minneapolis Center
05:49PM 41.2981 -97.4125 254° West 492 566 40,000  Level Minneapolis Center
05:50PM 41.2581 -97.5869 253° West 493 567 40,000  Level Minneapolis Center
05:51PM 41.2189 -97.7611 253° West 492 566 40,000  Level Minneapolis Center
05:52PM 41.1794 -97.9353 253° West 492 566 40,000  Level Minneapolis Center
05:53PM 41.1397 -98.1103 253° West 494 568 40,000  Level Minneapolis Center
05:54PM 41.0997 -98.2861 253° West 496 571 40,000  Level Minneapolis Center
05:55PM 41.0561 -98.4692 253° West 493 567 40,000  Level Minneapolis Center
05:56PM 41.0142 -98.6431 252° West 494 568 40,000  Level Minneapolis Center
05:57PM 40.9711 -98.8192 252° West 501 577 40,000  Level Minneapolis Center
05:58PM 40.9236 -99.0306 254° West 498 573 40,000  Level Minneapolis Center
05:59PM 40.8903 -99.1706 253° West 496 571 40,000  Level Denver Center
06:00PM 40.8486 -99.3450 253° West 496 571 40,000  Level Denver Center
06:01PM 40.8147 -99.4844 252° West 498 573 40,000  Level Denver Center
06:02PM 40.7550 -99.7278 252° West 498 573 40,000  Level Denver Center
06:03PM 40.7142 -99.8931 252° West 496 571 40,000  Level Denver Center
06:04PM 40.6661 -100.0869 252° West 498 573 40,000  Level Denver Center
06:05PM 40.6236 -100.2539 252° West 500 575 40,000  Level Denver Center
06:06PM 40.5814 -100.4197 252° West 497 572 40,000  Level Denver Center
06:07PM 40.5319 -100.6156 252° West 500 575 40,000  Level Denver Center
06:09PM 40.4886 -100.7842 251° West 503 579 40,000  Level Denver Center
06:10PM 40.4425 -100.9806 253° West 501 577 40,000  Level Denver Center
06:11PM 40.4208 -101.1547 261° West 502 578 40,000  Level Denver Center
06:12PM 40.3931 -101.3572 260° West 505 581 40,000  Level Denver Center
06:13PM 40.3692 -101.5294 260° West 501 577 40,000  Level Denver Center
06:14PM 40.3447 -101.7025 260° West 503 579 40,000  Level Denver Center
06:15PM 40.3178 -101.9050 260° West 504 580 40,000  Level Denver Center
06:16PM 40.2919 -102.0750 259° West 499 574 40,000  Level Denver Center
06:17PM 40.2636 -102.2750 260° West 500 575 40,000  Level Denver Center
06:18PM 40.2383 -102.4464 259° West 501 577 40,000  Level Denver Center
06:19PM 40.2092 -102.6464 259° West 502 578 40,000  Level Denver Center
06:20PM 40.1833 -102.8144 259° West 498 573 40,000  Level Denver Center
06:21PM 40.1567 -102.9933 259° West 502 578 40,000  Level Denver Center
06:22PM 40.1292 -103.1706 259° West 501 577 40,000  Level Denver Center
06:23PM 40.0956 -103.3836 258° West 501 577 40,000  Level Denver Center
06:24PM 40.0681 -103.5608 259° West 501 577 40,000  Level Denver Center
06:25PM 40.0400 -103.7361 258° West 497 572 40,000  Level Denver Center
06:26PM 40.0119 -103.9150 258° West 502 578 40,000  Level Denver Center
06:29PM 39.9239 -104.4814 259° West 499 574 40,000  Level Denver Center
06:30PM 39.9142 -104.6703 266° West 501 577 40,000  Level Denver Center
06:31PM 39.9067 -104.8544 267° West 506 582 40,000  Level Denver Center
06:32PM 39.8983 -105.0322 267° West 497 572 40,000  Level Denver Center
06:33PM 39.8886 -105.2231 266° West 489 563 40,000  Level Denver Center
06:34PM 39.8792 -105.4025 266° West 497 572 40,000  Level Denver Center
06:35PM 39.8700 -105.5800 266° West 494 568 40,000  Level Denver Center
06:36PM 39.8597 -105.7600 266° West 497 572 40,000  Level Denver Center
06:37PM 39.8528 -105.9328 267° West 481 554 40,000  Level Denver Center
06:39PM 39.8411 -106.1456 266° West 491 565 40,000  Level Denver Center
06:40PM 39.8306 -106.3239 266° West 494 568 40,000  Level Denver Center
06:41PM 39.8203 -106.5025 266° West 497 572 40,000  Level Denver Center
06:42PM 39.8083 -106.6822 265° West 499 574 40,000  Level Denver Center
06:43PM 39.7986 -106.8567 266° West 491 565 40,000  Level Denver Center
06:44PM 39.7875 -107.0322 265° West 493 567 40,000  Level Denver Center
06:45PM 39.7739 -107.2283 265° West 490 564 40,000  Level Denver Center
06:46PM 39.7625 -107.4244 266° West 488 562 40,000  Level Denver Center
06:47PM 39.7503 -107.5928 265° West 488 562 40,000  Level Denver Center
06:48PM 39.7369 -107.7867 265° West 484 557 40,000  Level Denver Center
06:49PM 39.7228 -107.9533 264° West 484 557 40,000  Level Denver Center
06:50PM 39.7111 -108.1208 265° West 488 562 40,000  Level Denver Center
06:51PM 39.6956 -108.3183 264° West 494 568 40,000  Level Denver Center
06:52PM 39.6839 -108.4847 265° West 486 559 40,000  Level Denver Center
06:53PM 39.6700 -108.6756 265° West 489 563 40,000  Level Denver Center
06:54PM 39.6525 -108.8706 263° West 501 577 40,000  Level Denver Center
06:55PM 39.6397 -109.0331 264° West 482 555 40,000  Level Denver Center
06:56PM 39.6242 -109.2264 264° West 483 556 40,000  Level Salt Lake Center
06:57PM 39.6103 -109.3911 264° West 482 555 40,000  Level Salt Lake Center
06:58PM 39.5958 -109.5564 264° West 483 556 40,000  Level Salt Lake Center
06:59PM 39.5786 -109.7503 263° West 484 557 40,000  Level Salt Lake Center
07:00PM 39.5639 -109.9147 263° West 482 555 40,000  Level Salt Lake Center
07:01PM 39.5472 -110.1078 264° West 482 555 40,000  Level Salt Lake Center
07:02PM 39.5325 -110.2711 263° West 478 550 40,000  Level Salt Lake Center
07:03PM 39.5167 -110.4336 263° West 476 548 40,000  Level Salt Lake Center
07:04PM 39.4983 -110.6242 263° West 479 551 40,000  Level Salt Lake Center
07:05PM 39.4831 -110.7886 263° West 479 551 40,000  Level Salt Lake Center
07:06PM 39.4647 -110.9800 263° West 480 552 40,000  Level Salt Lake Center
07:07PM 39.4478 -111.1450 262° West 482 555 40,000  Level Salt Lake Center
07:08PM 39.4306 -111.3186 263° West 483 556 40,000  Level Salt Lake Center
07:09PM 39.4131 -111.4908 263° West 482 555 40,000  Level Salt Lake Center
07:10PM 39.3933 -111.6628 262° West 484 557 40,000  Level Salt Lake Center
07:11PM 39.3753 -111.8347 262° West 483 556 40,000  Level Salt Lake Center
07:12PM 39.3533 -112.0406 262° West 482 555 40,000  Level Salt Lake Center
07:13PM 39.3353 -112.2144 262° West 487 560 40,000  Level Salt Lake Center
07:15PM 39.3172 -112.3856 262° West 484 557 40,000  Level Salt Lake Center
07:16PM 39.2972 -112.5539 261° West 478 550 40,000  Level Salt Lake Center
07:17PM 39.2775 -112.7256 262° West 479 551 40,000  Level Salt Lake Center
07:18PM 39.2583 -112.8989 262° West 484 557 40,000  Level Salt Lake Center
07:19PM 39.2397 -113.0675 262° West 480 552 40,000  Level Salt Lake Center
07:20PM 39.2211 -113.2367 262° West 480 552 40,000  Level Salt Lake Center
07:21PM 39.1975 -113.4400 262° West 480 552 40,000  Level Salt Lake Center
07:22PM 39.1778 -113.6075 261° West 477 549 40,000  Level Salt Lake Center
07:23PM 39.1581 -113.7756 261° West 477 549 40,000  Level Salt Lake Center
07:24PM 39.1375 -113.9439 261° West 477 549 40,000  Level Salt Lake Center
07:25PM 39.1161 -114.1119 261° West 478 550 40,000  Level Salt Lake Center
07:26PM 39.0961 -114.2756 261° West 470 541 40,000  Level Salt Lake Center
07:27PM 39.0753 -114.4364 261° West 461 531 40,000  Level Salt Lake Center
07:28PM 39.0514 -114.6319 261° West 463 533 40,000  Level Salt Lake Center
07:29PM 39.0292 -114.8000 260° West 474 545 40,000  Level Salt Lake Center
07:30PM 39.0075 -114.9681 261° West 478 550 40,000  Level Salt Lake Center
07:31PM 38.9847 -115.1367 260° West 481 554 40,000  Level Salt Lake Center
07:32PM 38.9633 -115.3061 261° West 482 555 40,000  Level Salt Lake Center
07:33PM 38.9408 -115.4681 260° West 481 554 40,000 60 Level Salt Lake Center
07:34PM 38.9125 -115.6706 260° West 481 554 40,200 480 Climbing Salt Lake Center
07:35PM 38.8897 -115.8369 260° West 476 548 41,100 840 Climbing Salt Lake Center
07:36PM 38.8681 -116.0025 261° West 472 543 42,000 900 Climbing Salt Lake Center
07:37PM 38.8442 -116.1639 259° West 464 534 43,000 480 Climbing Salt Lake Center
07:38PM 38.8278 -116.2947 261° West 466 536 43,000  Level Oakland Center
07:39PM 38.8036 -116.4592 259° West 469 540 43,000  Level Oakland Center
07:40PM 38.7747 -116.6594 260° West 477 549 43,000  Level Oakland Center
07:41PM 38.7506 -116.8239 259° West 472 543 43,000  Level Oakland Center
07:42PM 38.7264 -116.9861 259° West 468 539 43,000  Level Oakland Center
07:43PM 38.6967 -117.1819 259° West 469 540 43,000  Level Salt Lake Center
07:44PM 38.6772 -117.3136 259° West 472 543 43,000  Level Oakland Center
07:45PM 38.6519 -117.4761 259° West 469 540 43,000  Level Oakland Center
07:46PM 38.6267 -117.6386 259° West 469 540 43,000  Level Oakland Center
07:47PM 38.6011 -117.8011 259° West 468 539 43,000  Level Oakland Center
07:48PM 38.5708 -117.9983 259° West 472 543 43,000  Level Oakland Center
07:49PM 38.5542 -118.1619 263° West 469 540 43,000  Level Oakland Center
07:50PM 38.5439 -118.3281 266° West 467 537 43,000  Level Oakland Center
07:51PM 38.5319 -118.4917 265° West 463 533 43,000  Level Oakland Center
07:52PM 38.5192 -118.6589 264° West 469 540 43,000  Level Oakland Center
07:53PM 38.5069 -118.8250 265° West 469 540 43,000  Level Oakland Center
07:54PM 38.4942 -118.9922 264° West 471 542 43,000  Level Oakland Center
07:55PM 38.4803 -119.1589 264° West 471 542 43,000  Level Oakland Center
07:56PM 38.4686 -119.3264 265° West 473 544 43,000  Level Oakland Center
07:57PM 38.4544 -119.4906 264° West 468 539 43,000  Level Oakland Center
07:58PM 38.4411 -119.6542 264° West 463 533 43,000 -180 Level Oakland Center
07:59PM 38.4267 -119.8225 264° West 455 524 42,700 -600 Descending Oakland Center
08:00PM 38.4117 -119.9831 263° West 458 527 41,800 -960 Descending Oakland Center
08:01PM 38.3978 -120.1472 264° West 465 535 40,800 -960 Descending Oakland Center
08:02PM 38.3817 -120.3114 263° West 466 536 39,900 -1,920 Descending Oakland Center
08:03PM 38.3675 -120.4742 264° West 463 533 37,000 -3,000 Descending Oakland Center
08:04PM 38.3536 -120.6311 264° West 448 516 33,900 -3,420 Descending Oakland Center
08:06PM 38.3333 -120.8261 263° West 459 528 30,000 -3,540 Descending Oakland Center
08:07PM 38.2808 -120.9794 246° West 466 536 26,700 -3,120 Descending Oakland Center
08:08PM 38.2283 -121.1278 246° West 456 525 23,700 -3,000 Descending Oakland Center
08:08PM 38.2167 -121.2667 264° West 444 511 21,100 -2,940 Descending Northern Cal TRACON
08:10PM 38.2167 -121.4167 270° West 405 466 17,900 -2,760 Descending Northern Cal TRACON
08:12PM 38.2364 -121.6897 275° West 399 459 12,400 -2,640 Descending Oakland Center
08:13PM 38.2442 -121.8156 275° West 358 412 9,900 -2,100 Descending Oakland Center
08:14PM 38.3042 -121.9006 312° West 279 321 8,200 -1,440 Descending Oakland Center
08:15PM 38.3531 -121.9600 316° Northwest 254 292 7,000 -1,080 Descending Oakland Center
08:16PM 38.3961 -122.0214 312° West 241 277 6,000 -540 Descending Oakland Center
08:17PM 38.4061 -122.0967 280° West 218 251 6,000 -360 Level Oakland Center
08:18PM 38.3872 -122.1736 253° West 226 260 5,300 -1,140 Descending Oakland Center
08:19PM 38.3442 -122.2192 220° Southwest 222 255 3,700 -1,740 Descending Oakland Center
08:20PM 38.2925 -122.2442 201° Southwest 209 241 1,800 -1,440 Descending Oakland Center
08:21PM 38.2572 -122.2633 203° Southwest 164 189 800 -840 Descending Oakland Center
08:22PM 38.2264 -122.2781 201° Southwest 134 154 100 -720 Descending Oakland Center